createdAt,value
2018-09-12T00:00:29.300Z,81.93
2018-09-12T00:01:29.284Z,81.87
2018-09-12T00:02:29.269Z,81.96
2018-09-12T00:03:29.256Z,81.68
2018-09-12T00:04:29.241Z,81.93
2018-09-12T00:05:29.226Z,81.96
2018-09-12T00:06:29.209Z,81.96
2018-09-12T00:07:29.195Z,81.96
2018-09-12T00:08:29.179Z,82.35
2018-09-12T00:09:29.165Z,82.02
2018-09-12T00:10:29.148Z,82.16
2018-09-12T00:11:29.135Z,82.31
2018-09-12T00:12:29.121Z,82.54
2018-09-12T00:13:29.103Z,82.54
2018-09-12T00:14:29.089Z,82.54
2018-09-12T00:15:29.076Z,82.50
2018-09-12T00:16:29.074Z,82.35
2018-09-12T00:17:29.057Z,82.35
2018-09-12T00:18:29.028Z,82.26
2018-09-12T00:19:29.016Z,82.35
2018-09-12T00:20:28.999Z,82.26
2018-09-12T00:21:28.983Z,82.54
2018-09-12T00:22:28.969Z,82.45
2018-09-12T00:23:28.955Z,82.26
2018-09-12T00:24:28.939Z,82.45
2018-09-12T00:25:28.924Z,82.45
2018-09-12T00:26:28.909Z,82.45
2018-09-12T00:27:28.899Z,82.45
2018-09-12T00:28:28.878Z,81.96
2018-09-12T00:29:28.864Z,82.54
2018-09-12T00:30:28.849Z,82.41
2018-09-12T00:31:28.835Z,82.41
2018-09-12T00:32:28.821Z,82.41
2018-09-12T00:33:28.804Z,82.31
2018-09-12T00:34:28.789Z,82.12
2018-09-12T00:35:28.773Z,82.26
2018-09-12T00:36:28.770Z,82.31
2018-09-12T00:37:28.743Z,82.12
2018-09-12T00:38:28.727Z,82.12
2018-09-12T00:39:28.713Z,82.21
2018-09-12T00:40:28.701Z,82.31
2018-09-12T00:41:28.682Z,82.60
2018-09-12T00:42:28.668Z,82.50
2018-09-12T00:43:28.654Z,82.79
2018-09-12T00:44:28.640Z,82.79
2018-09-12T00:45:28.623Z,82.60
2018-09-12T00:46:28.607Z,82.89
2018-09-12T00:47:28.593Z,82.79
2018-09-12T00:48:28.581Z,83.08
2018-09-12T00:49:28.562Z,82.89
2018-09-12T00:50:28.548Z,82.89
2018-09-12T00:51:28.533Z,82.79
2018-09-12T00:52:28.519Z,82.70
2018-09-12T00:53:28.503Z,82.79
2018-09-12T00:54:28.488Z,83.18
2018-09-12T00:55:28.473Z,83.28
2018-09-12T00:56:28.458Z,83.28
2018-09-12T00:57:28.442Z,83.08
2018-09-12T00:58:28.429Z,83.28
2018-09-12T00:59:28.411Z,83.66
2018-09-12T01:00:28.397Z,83.37
2018-09-12T01:01:28.387Z,83.47
2018-09-12T01:02:28.368Z,83.28
2018-09-12T01:03:28.351Z,83.47
2018-09-12T01:04:28.336Z,83.75
2018-09-12T01:05:28.321Z,83.75
2018-09-12T01:06:28.306Z,83.75
2018-09-12T01:07:28.291Z,83.47
2018-09-12T01:08:28.276Z,83.85
2018-09-12T01:09:28.263Z,83.75
2018-09-12T01:10:28.244Z,83.66
2018-09-12T01:11:28.232Z,83.75
2018-09-12T01:12:28.215Z,83.66
2018-09-12T01:13:28.199Z,83.95
2018-09-12T01:14:28.184Z,84.33
2018-09-12T01:15:28.169Z,83.95
2018-09-12T01:16:28.155Z,83.56
2018-09-12T01:17:28.139Z,83.75
2018-09-12T01:18:28.124Z,84.14
2018-09-12T01:19:28.108Z,83.85
2018-09-12T01:20:28.093Z,84.14
2018-09-12T01:21:28.077Z,83.95
2018-09-12T01:22:28.064Z,84.23
2018-09-12T01:23:28.048Z,84.14
2018-09-12T01:24:28.034Z,83.95
2018-09-12T01:25:28.017Z,84.53
2018-09-12T01:26:28.003Z,84.53
2018-09-12T01:27:27.988Z,84.43
2018-09-12T01:28:27.970Z,85.00
2018-09-12T01:29:27.955Z,85.10
2018-09-12T01:30:27.943Z,85.10
2018-09-12T01:31:27.925Z,85.10
2018-09-12T01:32:27.911Z,84.72
2018-09-12T01:33:27.894Z,84.91
2018-09-12T01:34:27.880Z,84.91
2018-09-12T01:35:27.864Z,85.20
2018-09-12T01:36:27.851Z,85.30
2018-09-12T01:37:27.835Z,85.10
2018-09-12T01:38:27.820Z,85.44
2018-09-12T01:39:27.803Z,85.49
2018-09-12T01:40:27.791Z,85.78
2018-09-12T01:41:27.772Z,85.58
2018-09-12T01:42:27.758Z,85.49
2018-09-12T01:43:27.743Z,85.68
2018-09-12T01:44:27.729Z,85.39
2018-09-12T01:45:27.713Z,85.39
2018-09-12T01:46:27.698Z,85.49
2018-09-12T01:47:27.683Z,85.49
2018-09-12T01:48:27.667Z,85.49
2018-09-12T01:49:27.651Z,85.68
2018-09-12T01:50:27.644Z,85.87
2018-09-12T01:51:27.622Z,86.31
2018-09-12T01:52:27.606Z,86.16
2018-09-12T01:53:27.589Z,85.78
2018-09-12T01:54:27.575Z,85.78
2018-09-12T01:55:27.560Z,86.07
2018-09-12T01:56:27.547Z,86.12
2018-09-12T01:57:27.529Z,86.41
2018-09-12T01:58:27.514Z,86.12
2018-09-12T01:59:27.501Z,86.51
2018-09-12T02:00:27.485Z,86.31
2018-09-12T02:01:27.468Z,86.35
2018-09-12T02:02:27.473Z,86.51
2018-09-12T02:03:27.438Z,86.51
2018-09-12T02:04:27.424Z,86.60
2018-09-12T02:05:27.405Z,86.41
2018-09-12T02:06:27.393Z,86.60
2018-09-12T02:07:27.376Z,86.12
2018-09-12T02:08:27.362Z,85.83
2018-09-12T02:09:27.345Z,86.02
2018-09-12T02:10:27.331Z,86.12
2018-09-12T02:11:27.315Z,86.22
2018-09-12T02:12:27.302Z,86.12
2018-09-12T02:13:27.284Z,85.83
2018-09-12T02:14:27.268Z,86.12
2018-09-12T02:15:27.254Z,85.93
2018-09-12T02:16:27.240Z,86.31
2018-09-12T02:17:27.222Z,85.83
2018-09-12T02:18:27.211Z,86.02
2018-09-12T02:19:27.192Z,86.31
2018-09-12T02:20:27.177Z,85.93
2018-09-12T02:21:27.161Z,85.93
2018-09-12T02:22:27.146Z,86.12
2018-09-12T02:23:27.131Z,86.12
2018-09-12T02:24:27.116Z,86.12
2018-09-12T02:25:27.102Z,86.31
2018-09-12T02:26:27.088Z,85.64
2018-09-12T02:27:27.074Z,85.93
2018-09-12T02:28:27.054Z,85.64
2018-09-12T02:29:27.039Z,86.22
2018-09-12T02:30:27.022Z,86.12
2018-09-12T02:31:27.008Z,86.02
2018-09-12T02:32:26.998Z,86.22
2018-09-12T02:33:26.979Z,86.22
2018-09-12T02:34:26.962Z,85.35
2018-09-12T02:35:26.948Z,85.54
2018-09-12T02:36:26.931Z,85.93
2018-09-12T02:37:26.915Z,85.25
2018-09-12T02:38:26.901Z,85.68
2018-09-12T02:39:26.884Z,85.25
2018-09-12T02:40:26.871Z,85.06
2018-09-12T02:41:26.855Z,85.44
2018-09-12T02:42:26.842Z,85.25
2018-09-12T02:43:26.825Z,84.87
2018-09-12T02:44:26.808Z,84.97
2018-09-12T02:45:26.793Z,84.77
2018-09-12T02:46:26.824Z,85.16
2018-09-12T02:47:26.763Z,85.25
2018-09-12T02:48:26.747Z,84.77
2018-09-12T02:49:26.749Z,85.25
2018-09-12T02:50:26.716Z,85.54
2018-09-12T02:51:26.701Z,85.25
2018-09-12T02:52:26.689Z,85.64
2018-09-12T02:53:26.671Z,85.44
2018-09-12T02:54:26.672Z,85.64
2018-09-12T02:55:26.639Z,85.64
2018-09-12T02:56:26.624Z,85.54
2018-09-12T02:57:26.610Z,85.25
2018-09-12T02:58:26.594Z,86.02
2018-09-12T02:59:26.580Z,86.12
2018-09-12T03:00:26.563Z,85.93
2018-09-12T03:01:26.547Z,86.31
2018-09-12T03:02:26.531Z,86.22
2018-09-12T03:03:26.517Z,86.31
2018-09-12T03:04:26.502Z,86.31
2018-09-12T03:05:26.486Z,86.79
2018-09-12T03:06:26.470Z,86.60
2018-09-12T03:07:26.455Z,86.41
2018-09-12T03:08:26.443Z,86.41
2018-09-12T03:09:26.424Z,86.60
2018-09-12T03:10:26.410Z,86.89
2018-09-12T03:11:26.396Z,86.69
2018-09-12T03:12:26.378Z,87.37
2018-09-12T03:13:26.361Z,87.56
2018-09-12T03:14:26.354Z,87.37
2018-09-12T03:15:26.333Z,87.18
2018-09-12T03:16:26.317Z,87.37
2018-09-12T03:17:26.299Z,87.18
2018-09-12T03:18:26.284Z,87.18
2018-09-12T03:19:26.271Z,87.18
2018-09-12T03:20:26.295Z,86.99
2018-09-12T03:21:26.239Z,87.56
2018-09-12T03:22:26.227Z,87.76
2018-09-12T03:23:26.211Z,87.56
2018-09-12T03:24:26.194Z,88.24
2018-09-12T03:25:26.177Z,87.95
2018-09-12T03:26:26.162Z,87.95
2018-09-12T03:27:26.147Z,88.04
2018-09-12T03:28:26.133Z,87.85
2018-09-12T03:29:26.117Z,87.76
2018-09-12T03:30:26.112Z,88.04
2018-09-12T03:31:26.091Z,88.24
2018-09-12T03:32:26.071Z,88.43
2018-09-12T03:33:26.059Z,88.62
2018-09-12T03:34:26.047Z,88.04
2018-09-12T03:35:26.023Z,88.53
2018-09-12T03:36:26.009Z,88.04
2018-09-12T03:37:25.993Z,88.53
2018-09-12T03:38:25.976Z,88.43
2018-09-12T03:39:25.963Z,88.43
2018-09-12T03:40:25.947Z,88.62
2018-09-12T03:41:25.931Z,88.53
2018-09-12T03:42:25.915Z,88.43
2018-09-12T03:43:25.904Z,88.53
2018-09-12T03:44:25.886Z,88.43
2018-09-12T03:45:25.869Z,88.53
2018-09-12T03:46:25.854Z,88.62
2018-09-12T03:47:25.839Z,88.43
2018-09-12T03:48:25.829Z,88.62
2018-09-12T03:49:25.807Z,88.33
2018-09-12T03:50:25.867Z,88.43
2018-09-12T03:51:25.777Z,89.01
2018-09-12T03:52:25.762Z,88.43
2018-09-12T03:53:25.746Z,88.62
2018-09-12T03:54:25.730Z,88.24
2018-09-12T03:55:25.718Z,88.33
2018-09-12T03:56:25.699Z,88.62
2018-09-12T03:57:25.716Z,88.14
2018-09-12T03:58:26.571Z,88.62
2018-09-12T03:59:25.655Z,89.01
2018-09-12T04:00:25.638Z,89.39
2018-09-12T04:01:25.622Z,89.20
2018-09-12T04:02:25.605Z,89.20
2018-09-12T04:03:25.592Z,88.91
2018-09-12T04:04:25.581Z,88.81
2018-09-12T04:05:25.559Z,89.01
2018-09-12T04:06:25.545Z,88.81
2018-09-12T04:07:25.530Z,89.20
2018-09-12T04:08:25.514Z,88.62
2018-09-12T04:09:25.499Z,88.77
2018-09-12T04:10:25.483Z,88.87
2018-09-12T04:11:25.468Z,88.81
2018-09-12T04:12:25.452Z,89.06
2018-09-12T04:13:25.436Z,89.29
2018-09-12T04:14:25.420Z,89.49
2018-09-12T04:15:25.406Z,89.39
2018-09-12T04:16:25.390Z,89.25
2018-09-12T04:17:25.378Z,89.15
2018-09-12T04:18:25.358Z,89.35
2018-09-12T04:19:25.348Z,89.64
2018-09-12T04:20:25.329Z,89.73
2018-09-12T04:21:25.314Z,89.64
2018-09-12T04:22:25.302Z,89.73
2018-09-12T04:23:25.283Z,89.73
2018-09-12T04:24:25.324Z,89.73
2018-09-12T04:25:25.254Z,89.83
2018-09-12T04:26:25.236Z,90.21
2018-09-12T04:27:25.220Z,90.12
2018-09-12T04:28:25.207Z,90.12
2018-09-12T04:29:25.210Z,90.02
2018-09-12T04:30:25.175Z,89.92
2018-09-12T04:31:25.158Z,90.50
2018-09-12T04:32:25.144Z,90.98
2018-09-12T04:33:25.127Z,90.79
2018-09-12T04:34:25.112Z,90.69
2018-09-12T04:35:25.098Z,90.50
2018-09-12T04:36:25.082Z,90.69
2018-09-12T04:37:25.066Z,90.69
2018-09-12T04:38:25.051Z,91.17
2018-09-12T04:39:25.035Z,91.36
2018-09-12T04:40:25.024Z,91.08
2018-09-12T04:41:25.006Z,90.98
2018-09-12T04:42:24.988Z,91.75
2018-09-12T04:43:24.973Z,91.94
2018-09-12T04:44:24.959Z,91.75
2018-09-12T04:45:24.945Z,91.56
2018-09-12T04:46:24.927Z,91.46
2018-09-12T04:47:24.912Z,91.75
2018-09-12T04:48:24.957Z,91.46
2018-09-12T04:49:24.895Z,91.66
2018-09-12T04:50:24.866Z,91.56
2018-09-12T04:51:24.848Z,91.56
2018-09-12T04:52:24.832Z,91.85
2018-09-12T04:53:24.815Z,91.56
2018-09-12T04:54:24.800Z,91.36
2018-09-12T04:55:24.785Z,91.66
2018-09-12T04:56:24.771Z,91.75
2018-09-12T04:57:24.754Z,91.66
2018-09-12T04:58:24.740Z,91.36
2018-09-12T04:59:24.724Z,91.56
2018-09-12T05:00:24.709Z,91.85
2018-09-12T05:01:24.695Z,91.85
2018-09-12T05:02:24.676Z,91.94
2018-09-12T05:03:24.661Z,92.04
2018-09-12T05:04:24.648Z,91.66
2018-09-12T05:05:24.630Z,92.33
2018-09-12T05:06:24.614Z,92.23
2018-09-12T05:07:24.600Z,92.23
2018-09-12T05:08:24.584Z,92.04
2018-09-12T05:09:24.568Z,92.13
2018-09-12T05:10:24.557Z,91.85
2018-09-12T05:11:24.537Z,92.61
2018-09-12T05:12:24.520Z,92.81
2018-09-12T05:13:24.504Z,92.61
2018-09-12T05:14:24.491Z,92.81
2018-09-12T05:15:24.474Z,92.33
2018-09-12T05:16:24.459Z,92.23
2018-09-12T05:17:24.442Z,91.94
2018-09-12T05:18:24.430Z,92.61
2018-09-12T05:19:24.418Z,92.71
2018-09-12T05:20:24.407Z,92.33
2018-09-12T05:21:24.380Z,91.94
2018-09-12T05:22:24.364Z,91.94
2018-09-12T05:23:24.350Z,92.71
2018-09-12T05:24:24.335Z,92.61
2018-09-12T05:25:24.317Z,92.91
2018-09-12T05:26:24.301Z,93.10
2018-09-12T05:27:24.287Z,93.19
2018-09-12T05:28:24.323Z,92.91
2018-09-12T05:29:24.254Z,93.29
2018-09-12T05:30:24.240Z,93.96
2018-09-12T05:31:24.224Z,94.25
2018-09-12T05:32:24.209Z,94.15
2018-09-12T05:33:24.193Z,94.73
2018-09-12T05:34:24.177Z,95.12
2018-09-12T05:35:24.165Z,95.12
2018-09-12T05:36:24.189Z,95.50
2018-09-12T05:37:24.130Z,95.60
2018-09-12T05:38:24.113Z,96.37
2018-09-12T05:39:24.098Z,96.08
2018-09-12T05:40:24.083Z,96.27
2018-09-12T05:41:24.068Z,96.56
2018-09-12T05:42:24.051Z,96.08
2018-09-12T05:43:24.038Z,95.94
2018-09-12T05:44:24.019Z,96.27
2018-09-12T05:45:24.004Z,95.70
2018-09-12T05:46:23.990Z,95.40
2018-09-12T05:47:23.973Z,95.60
2018-09-12T05:48:23.956Z,95.40
2018-09-12T05:49:23.941Z,95.31
2018-09-12T05:50:23.925Z,95.31
2018-09-12T05:51:23.910Z,95.70
2018-09-12T05:52:23.893Z,95.31
2018-09-12T05:53:23.878Z,95.21
2018-09-12T05:54:23.862Z,94.92
2018-09-12T05:55:23.845Z,95.50
2018-09-12T05:56:23.831Z,95.79
2018-09-12T05:57:23.818Z,95.70
2018-09-12T05:58:23.819Z,95.12
2018-09-12T05:59:23.782Z,96.27
2018-09-12T06:00:23.771Z,96.37
2018-09-12T06:01:23.752Z,96.75
2018-09-12T06:02:23.737Z,96.27
2018-09-12T06:03:23.725Z,96.47
2018-09-12T06:04:23.703Z,96.56
2018-09-12T06:05:23.689Z,96.17
2018-09-12T06:06:23.679Z,96.56
2018-09-12T06:07:23.731Z,96.75
2018-09-12T06:08:23.642Z,96.66
2018-09-12T06:09:23.625Z,96.66
2018-09-12T06:10:23.609Z,96.56
2018-09-12T06:11:23.594Z,96.56
2018-09-12T06:12:23.580Z,96.47
2018-09-12T06:13:23.563Z,96.56
2018-09-12T06:14:23.551Z,96.27
2018-09-12T06:15:23.531Z,96.47
2018-09-12T06:16:23.516Z,96.66
2018-09-12T06:17:23.499Z,96.66
2018-09-12T06:18:23.483Z,96.37
2018-09-12T06:19:23.470Z,96.66
2018-09-12T06:20:23.452Z,97.04
2018-09-12T06:21:23.436Z,96.66
2018-09-12T06:22:23.419Z,96.56
2018-09-12T06:23:23.405Z,96.27
2018-09-12T06:24:23.389Z,96.17
2018-09-12T06:25:23.372Z,96.37
2018-09-12T06:26:23.357Z,96.17
2018-09-12T06:27:23.342Z,96.47
2018-09-12T06:28:23.328Z,96.37
2018-09-12T06:29:23.310Z,96.37
2018-09-12T06:30:23.294Z,95.98
2018-09-12T06:31:23.279Z,95.98
2018-09-12T06:32:23.264Z,96.27
2018-09-12T06:33:23.247Z,95.89
2018-09-12T06:34:23.233Z,95.89
2018-09-12T06:35:23.216Z,95.31
2018-09-12T06:36:23.200Z,95.79
2018-09-12T06:37:23.183Z,95.70
2018-09-12T06:38:23.204Z,95.89
2018-09-12T06:39:23.152Z,95.89
2018-09-12T06:40:23.138Z,95.21
2018-09-12T06:41:23.120Z,95.50
2018-09-12T06:42:23.107Z,95.12
2018-09-12T06:43:23.090Z,94.73
2018-09-12T06:44:23.075Z,94.73
2018-09-12T06:45:23.056Z,94.83
2018-09-12T06:46:23.042Z,94.83
2018-09-12T06:47:23.027Z,95.12
2018-09-12T06:48:23.010Z,95.02
2018-09-12T06:49:22.993Z,94.73
2018-09-12T06:50:22.978Z,95.02
2018-09-12T06:51:22.963Z,94.83
2018-09-12T06:52:22.947Z,95.21
2018-09-12T06:53:22.931Z,95.40
2018-09-12T06:54:22.916Z,95.21
2018-09-12T06:55:22.900Z,95.70
2018-09-12T06:56:22.884Z,96.47
2018-09-12T06:57:22.869Z,96.56
2018-09-12T06:58:22.852Z,96.37
2018-09-12T06:59:22.840Z,96.37
2018-09-12T07:00:22.822Z,97.04
2018-09-12T07:01:22.806Z,96.08
2018-09-12T07:02:22.790Z,96.85
2018-09-12T07:03:22.774Z,96.56
2018-09-12T07:04:22.759Z,96.85
2018-09-12T07:05:22.749Z,96.66
2018-09-12T07:06:22.726Z,96.17
2018-09-12T07:07:22.734Z,96.37
2018-09-12T07:08:22.696Z,96.66
2018-09-12T07:09:22.678Z,96.37
2018-09-12T07:10:22.663Z,96.47
2018-09-12T07:11:22.647Z,96.27
2018-09-12T07:12:22.632Z,96.89
2018-09-12T07:13:22.616Z,96.66
2018-09-12T07:14:22.629Z,96.51
2018-09-12T07:15:22.585Z,96.99
2018-09-12T07:16:22.572Z,96.66
2018-09-12T07:17:22.552Z,96.37
2018-09-12T07:18:22.543Z,96.51
2018-09-12T07:19:22.522Z,96.56
2018-09-12T07:20:22.508Z,97.28
2018-09-12T07:21:22.490Z,97.57
2018-09-12T07:22:22.476Z,97.38
2018-09-12T07:23:22.459Z,97.47
2018-09-12T07:24:22.469Z,97.47
2018-09-12T07:25:22.427Z,97.28
2018-09-12T07:26:22.412Z,97.38
2018-09-12T07:27:22.396Z,97.47
2018-09-12T07:28:22.383Z,97.38
2018-09-12T07:29:22.365Z,97.86
2018-09-12T07:30:22.370Z,97.96
2018-09-12T07:31:22.335Z,98.49
2018-09-12T07:32:22.320Z,98.68
2018-09-12T07:33:22.304Z,98.82
2018-09-12T07:34:22.289Z,98.92
2018-09-12T07:35:22.274Z,98.82
2018-09-12T07:36:22.257Z,98.82
2018-09-12T07:37:22.243Z,99.30
2018-09-12T07:38:22.226Z,99.16
2018-09-12T07:39:22.213Z,99.11
2018-09-12T07:40:22.195Z,99.21
2018-09-12T07:41:22.179Z,99.11
2018-09-12T07:42:22.165Z,98.54
2018-09-12T07:43:22.148Z,98.82
2018-09-12T07:44:22.131Z,99.01
2018-09-12T07:45:22.117Z,99.01
2018-09-12T07:46:22.100Z,99.21
2018-09-12T07:47:22.084Z,99.69
2018-09-12T07:48:22.068Z,99.21
2018-09-12T07:49:22.054Z,99.88
2018-09-12T07:50:22.042Z,98.82
2018-09-12T07:51:22.023Z,99.40
2018-09-12T07:52:22.008Z,99.01
2018-09-12T07:53:21.991Z,99.01
2018-09-12T07:54:21.977Z,99.30
2018-09-12T07:55:22.024Z,99.01
2018-09-12T07:56:21.970Z,98.82
2018-09-12T07:57:21.929Z,98.44
2018-09-12T07:58:21.913Z,98.05
2018-09-12T07:59:21.899Z,98.05
2018-09-12T08:00:21.927Z,98.54
2018-09-12T08:01:21.871Z,99.06
2018-09-12T08:02:21.865Z,98.54
2018-09-12T08:03:21.839Z,98.54
2018-09-12T08:04:21.822Z,98.34
2018-09-12T08:05:21.807Z,98.44
2018-09-12T08:06:21.789Z,97.96
2018-09-12T08:07:21.778Z,98.05
2018-09-12T08:08:21.760Z,98.24
2018-09-12T08:09:21.770Z,98.54
2018-09-12T08:10:21.729Z,99.01
2018-09-12T08:11:21.713Z,99.01
2018-09-12T08:12:21.802Z,99.01
2018-09-12T08:13:21.681Z,99.11
2018-09-12T08:14:21.669Z,99.11
2018-09-12T08:15:21.652Z,99.30
2018-09-12T08:16:21.635Z,98.92
2018-09-12T08:17:21.618Z,98.63
2018-09-12T08:18:21.605Z,97.76
2018-09-12T08:19:21.588Z,98.44
2018-09-12T08:20:21.573Z,99.01
2018-09-12T08:21:21.556Z,98.82
2018-09-12T08:22:21.542Z,99.30
2018-09-12T08:23:21.527Z,98.82
2018-09-12T08:24:21.512Z,98.63
2018-09-12T08:25:21.500Z,98.54
2018-09-12T08:26:21.551Z,98.24
2018-09-12T08:27:21.481Z,98.19
2018-09-12T08:28:21.451Z,98.34
2018-09-12T08:29:21.434Z,98.49
2018-09-12T08:30:21.419Z,97.72
2018-09-12T08:31:21.402Z,97.72
2018-09-12T08:32:21.388Z,97.52
2018-09-12T08:33:21.380Z,97.52
2018-09-12T08:34:21.357Z,97.24
2018-09-12T08:35:21.341Z,97.52
2018-09-12T08:36:21.355Z,96.56
2018-09-12T08:37:21.309Z,97.42
2018-09-12T08:38:21.305Z,97.14
2018-09-12T08:39:21.279Z,96.61
2018-09-12T08:40:21.263Z,96.42
2018-09-12T08:41:21.246Z,96.61
2018-09-12T08:42:21.296Z,96.03
2018-09-12T08:43:21.215Z,96.22
2018-09-12T08:44:21.201Z,95.74
2018-09-12T08:45:21.187Z,95.26
2018-09-12T08:46:21.171Z,95.64
2018-09-12T08:47:21.156Z,95.07
2018-09-12T08:48:21.138Z,95.55
2018-09-12T08:49:21.124Z,95.74
2018-09-12T08:50:21.110Z,95.36
2018-09-12T08:51:21.094Z,94.97
2018-09-12T08:52:21.078Z,94.68
2018-09-12T08:53:21.061Z,94.87
2018-09-12T08:54:21.075Z,94.59
2018-09-12T08:55:21.032Z,94.87
2018-09-12T08:56:21.018Z,95.07
2018-09-12T08:57:21.002Z,95.07
2018-09-12T08:58:20.990Z,95.07
2018-09-12T08:59:20.971Z,94.97
2018-09-12T09:00:20.995Z,94.68
2018-09-12T09:01:20.970Z,94.49
2018-09-12T09:02:20.925Z,93.62
2018-09-12T09:03:20.910Z,94.49
2018-09-12T09:04:20.896Z,94.39
2018-09-12T09:05:20.879Z,93.91
2018-09-12T09:06:20.863Z,94.10
2018-09-12T09:07:20.849Z,94.68
2018-09-12T09:08:20.835Z,94.39
2018-09-12T09:09:20.818Z,94.10
2018-09-12T09:10:20.808Z,94.87
2018-09-12T09:11:20.788Z,95.07
2018-09-12T09:12:20.773Z,94.68
2018-09-12T09:13:20.765Z,94.44
2018-09-12T09:14:20.742Z,94.29
2018-09-12T09:15:20.727Z,94.29
2018-09-12T09:16:20.743Z,94.78
2018-09-12T09:17:20.731Z,94.87
2018-09-12T09:18:20.681Z,94.87
2018-09-12T09:19:20.670Z,94.87
2018-09-12T09:20:20.652Z,95.26
2018-09-12T09:21:20.638Z,95.45
2018-09-12T09:22:20.624Z,95.26
2018-09-12T09:23:20.606Z,95.55
2018-09-12T09:24:20.594Z,95.16
2018-09-12T09:25:20.575Z,95.64
2018-09-12T09:26:20.562Z,95.74
2018-09-12T09:27:20.596Z,95.64
2018-09-12T09:28:20.531Z,95.07
2018-09-12T09:29:20.572Z,95.07
2018-09-12T09:30:20.499Z,95.64
2018-09-12T09:31:20.485Z,95.36
2018-09-12T09:32:20.485Z,95.26
2018-09-12T09:33:20.453Z,95.16
2018-09-12T09:34:20.438Z,95.45
2018-09-12T09:35:20.443Z,95.26
2018-09-12T09:36:20.408Z,95.55
2018-09-12T09:37:20.395Z,95.26
2018-09-12T09:38:20.379Z,95.07
2018-09-12T09:39:20.363Z,94.97
2018-09-12T09:40:20.348Z,94.39
2018-09-12T09:41:20.333Z,94.87
2018-09-12T09:42:20.317Z,94.39
2018-09-12T09:43:20.302Z,94.49
2018-09-12T09:44:20.288Z,93.72
2018-09-12T09:45:20.272Z,94.59
2018-09-12T09:46:20.255Z,94.20
2018-09-12T09:47:20.241Z,93.91
2018-09-12T09:48:20.279Z,94.39
2018-09-12T09:49:20.210Z,94.20
2018-09-12T09:50:20.195Z,93.81
2018-09-12T09:51:20.180Z,93.91
2018-09-12T09:52:20.166Z,93.91
2018-09-12T09:53:20.150Z,94.10
2018-09-12T09:54:20.135Z,93.43
2018-09-12T09:55:20.121Z,93.81
2018-09-12T09:56:20.105Z,93.14
2018-09-12T09:57:20.091Z,93.14
2018-09-12T09:58:20.075Z,93.62
2018-09-12T09:59:20.061Z,93.81
2018-09-12T10:00:20.127Z,93.72
2018-09-12T10:01:20.032Z,93.38
2018-09-12T10:02:20.015Z,93.62
2018-09-12T10:03:20.001Z,93.43
2018-09-12T10:04:19.983Z,92.61
2018-09-12T10:05:19.971Z,92.08
2018-09-12T10:06:19.954Z,91.93
2018-09-12T10:07:19.938Z,92.37
2018-09-12T10:08:19.923Z,92.66
2018-09-12T10:09:19.907Z,92.90
2018-09-12T10:10:19.894Z,92.90
2018-09-12T10:11:19.877Z,92.61
2018-09-12T10:12:19.863Z,92.99
2018-09-12T10:13:19.848Z,92.71
2018-09-12T10:14:19.831Z,92.80
2018-09-12T10:15:19.817Z,92.80
2018-09-12T10:16:19.803Z,92.32
2018-09-12T10:17:19.786Z,92.03
2018-09-12T10:18:19.772Z,92.41
2018-09-12T10:19:19.760Z,91.83
2018-09-12T10:20:19.742Z,91.26
2018-09-12T10:21:19.726Z,91.83
2018-09-12T10:22:19.712Z,91.83
2018-09-12T10:23:19.708Z,91.74
2018-09-12T10:24:19.729Z,91.83
2018-09-12T10:25:19.666Z,91.88
2018-09-12T10:26:19.651Z,92.22
2018-09-12T10:27:19.638Z,89.37
2018-09-12T10:28:19.623Z,88.85
2018-09-12T10:29:19.610Z,88.08
2018-09-12T10:30:19.593Z,88.27
2018-09-12T10:31:19.577Z,87.88
2018-09-12T10:32:19.563Z,87.46
2018-09-12T10:33:19.549Z,87.55
2018-09-12T10:34:19.533Z,87.84
2018-09-12T10:35:19.519Z,87.46
2018-09-12T10:36:19.505Z,87.94
2018-09-12T10:37:19.487Z,87.60
2018-09-12T10:38:19.474Z,87.41
2018-09-12T10:39:19.457Z,88.09
2018-09-12T10:40:19.442Z,88.09
2018-09-12T10:41:19.425Z,87.99
2018-09-12T10:42:19.412Z,88.43
2018-09-12T10:43:19.398Z,87.95
2018-09-12T10:44:19.384Z,87.18
2018-09-12T10:45:19.370Z,87.46
2018-09-12T10:46:19.354Z,87.56
2018-09-12T10:47:19.341Z,87.18
2018-09-12T10:48:19.322Z,87.56
2018-09-12T10:49:19.306Z,87.66
2018-09-12T10:50:19.291Z,87.56
2018-09-12T10:51:19.281Z,88.14
2018-09-12T10:52:19.260Z,88.14
2018-09-12T10:53:19.245Z,88.04
2018-09-12T10:54:19.230Z,87.66
2018-09-12T10:55:19.215Z,88.14
2018-09-12T10:56:19.200Z,88.19
2018-09-12T10:57:19.184Z,87.95
2018-09-12T10:58:19.168Z,88.39
2018-09-12T10:59:19.153Z,88.19
2018-09-12T11:00:19.139Z,88.48
2018-09-12T11:01:19.123Z,88.33
2018-09-12T11:02:19.113Z,88.19
2018-09-12T11:03:19.092Z,88.48
2018-09-12T11:04:19.133Z,88.29
2018-09-12T11:05:19.060Z,88.57
2018-09-12T11:06:19.046Z,88.48
2018-09-12T11:07:19.031Z,88.57
2018-09-12T11:08:19.016Z,88.57
2018-09-12T11:09:19.001Z,88.19
2018-09-12T11:10:18.986Z,88.39
2018-09-12T11:11:18.968Z,88.29
2018-09-12T11:12:18.955Z,87.81
2018-09-12T11:13:18.939Z,88.10
2018-09-12T11:14:18.923Z,87.90
2018-09-12T11:15:18.927Z,88.00
2018-09-12T11:16:18.893Z,88.48
2018-09-12T11:17:18.877Z,88.96
2018-09-12T11:18:18.863Z,88.39
2018-09-12T11:19:18.845Z,88.39
2018-09-12T11:20:18.832Z,88.10
2018-09-12T11:21:18.814Z,87.52
2018-09-12T11:22:18.799Z,87.42
2018-09-12T11:23:18.785Z,87.62
2018-09-12T11:24:18.769Z,87.52
2018-09-12T11:25:18.752Z,87.13
2018-09-12T11:26:18.740Z,86.75
2018-09-12T11:27:18.721Z,87.23
2018-09-12T11:28:18.709Z,86.75
2018-09-12T11:29:18.692Z,86.18
2018-09-12T11:30:18.680Z,85.98
2018-09-12T11:31:18.661Z,86.18
2018-09-12T11:32:18.646Z,85.40
2018-09-12T11:33:18.631Z,85.69
2018-09-12T11:34:18.672Z,85.40
2018-09-12T11:35:18.600Z,85.35
2018-09-12T11:36:18.586Z,85.44
2018-09-12T11:37:18.569Z,85.60
2018-09-12T11:38:18.553Z,85.21
2018-09-12T11:39:18.539Z,85.69
2018-09-12T11:40:18.523Z,85.31
2018-09-12T11:41:18.507Z,85.60
2018-09-12T11:42:18.493Z,85.21
2018-09-12T11:43:18.477Z,85.11
2018-09-12T11:44:18.464Z,85.40
2018-09-12T11:45:18.446Z,85.31
2018-09-12T11:46:18.430Z,85.40
2018-09-12T11:47:18.415Z,85.40
2018-09-12T11:48:18.402Z,86.08
2018-09-12T11:49:18.384Z,86.56
2018-09-12T11:50:18.369Z,86.56
2018-09-12T11:51:18.355Z,86.46
2018-09-12T11:52:18.340Z,86.56
2018-09-12T11:53:18.323Z,87.23
2018-09-12T11:54:18.308Z,87.23
2018-09-12T11:55:18.339Z,87.33
2018-09-12T11:56:18.278Z,87.81
2018-09-12T11:57:18.265Z,87.48
2018-09-12T11:58:18.248Z,87.19
2018-09-12T11:59:18.230Z,87.09
2018-09-12T12:00:18.216Z,87.13
2018-09-12T12:01:18.199Z,87.13
2018-09-12T12:02:18.245Z,86.75
2018-09-12T12:03:18.169Z,87.29
2018-09-12T12:04:18.154Z,87.29
2018-09-12T12:05:18.138Z,87.29
2018-09-12T12:06:18.123Z,87.76
2018-09-12T12:07:18.107Z,87.76
2018-09-12T12:08:18.093Z,87.76
2018-09-12T12:09:18.077Z,87.48
2018-09-12T12:10:18.066Z,87.29
2018-09-12T12:11:18.046Z,86.99
2018-09-12T12:12:18.033Z,86.71
2018-09-12T12:13:18.053Z,86.75
2018-09-12T12:14:17.999Z,86.52
2018-09-12T12:15:18.008Z,85.94
2018-09-12T12:16:17.969Z,85.65
2018-09-12T12:17:17.951Z,85.55
2018-09-12T12:18:17.937Z,85.75
2018-09-12T12:19:17.921Z,85.46
2018-09-12T12:20:17.905Z,85.27
2018-09-12T12:21:17.889Z,85.55
2018-09-12T12:22:17.873Z,85.36
2018-09-12T12:23:17.939Z,85.94
2018-09-12T12:24:17.844Z,86.04
2018-09-12T12:25:17.828Z,85.94
2018-09-12T12:26:17.811Z,85.84
2018-09-12T12:27:17.799Z,86.22
2018-09-12T12:28:17.784Z,86.42
2018-09-12T12:29:17.766Z,86.71
2018-09-12T12:30:17.749Z,86.42
2018-09-12T12:31:17.736Z,86.99
2018-09-12T12:32:17.718Z,86.80
2018-09-12T12:33:17.703Z,87.19
2018-09-12T12:34:17.688Z,87.05
2018-09-12T12:35:17.721Z,87.05
2018-09-12T12:36:17.656Z,86.80
2018-09-12T12:37:17.638Z,87.05
2018-09-12T12:38:17.624Z,87.05
2018-09-12T12:39:17.609Z,86.85
2018-09-12T12:40:17.593Z,86.95
2018-09-12T12:41:17.604Z,87.09
2018-09-12T12:42:17.562Z,87.53
2018-09-12T12:43:17.546Z,87.53
2018-09-12T12:44:17.530Z,87.82
2018-09-12T12:45:17.515Z,87.82
2018-09-12T12:46:17.500Z,88.30
2018-09-12T12:47:17.485Z,88.68
2018-09-12T12:48:17.468Z,88.68
2018-09-12T12:49:17.450Z,89.26
2018-09-12T12:50:17.435Z,90.03
2018-09-12T12:51:17.420Z,90.60
2018-09-12T12:52:17.404Z,90.41